sensor_id;sensor_type;location;lat;lon;timestamp;pressure;altitude;pressure_sealevel;temperature;humidity
53041;BME280;39326;42.650;23.248;2023-04-26T00:00:18;91621.72;;;7.38;80.48
53041;BME280;39326;42.650;23.248;2023-04-26T00:02:43;91639.13;;;7.43;80.88
53041;BME280;39326;42.650;23.248;2023-04-26T00:05:09;91635.78;;;7.31;81.33
53041;BME280;39326;42.650;23.248;2023-04-26T00:07:34;91629.34;;;7.22;81.76
53041;BME280;39326;42.650;23.248;2023-04-26T00:10:02;91633.50;;;7.26;81.59
53041;BME280;39326;42.650;23.248;2023-04-26T00:12:27;91624.81;;;7.22;81.84
53041;BME280;39326;42.650;23.248;2023-04-26T00:14:53;91615.72;;;7.16;81.76
53041;BME280;39326;42.650;23.248;2023-04-26T00:17:18;91609.34;;;7.06;81.69
53041;BME280;39326;42.650;23.248;2023-04-26T00:19:44;91608.94;;;7.04;81.71
53041;BME280;39326;42.650;23.248;2023-04-26T00:22:09;91604.03;;;7.06;81.16
53041;BME280;39326;42.650;23.248;2023-04-26T00:24:35;91607.41;;;7.10;81.50
53041;BME280;39326;42.650;23.248;2023-04-26T00:27:00;91612.03;;;6.89;82.61
53041;BME280;39326;42.650;23.248;2023-04-26T00:29:29;91599.91;;;6.91;82.12
53041;BME280;39326;42.650;23.248;2023-04-26T00:31:54;91604.47;;;6.83;81.84
53041;BME280;39326;42.650;23.248;2023-04-26T00:34:20;91598.78;;;6.89;81.17
53041;BME280;39326;42.650;23.248;2023-04-26T00:36:45;91601.44;;;6.74;81.54
53041;BME280;39326;42.650;23.248;2023-04-26T00:39:10;91596.53;;;6.66;82.37
53041;BME280;39326;42.650;23.248;2023-04-26T00:41:36;91593.50;;;6.67;81.61
53041;BME280;39326;42.650;23.248;2023-04-26T00:44:01;91597.69;;;6.61;82.29
53041;BME280;39326;42.650;23.248;2023-04-26T00:46:27;91603.38;;;6.60;82.70
53041;BME280;39326;42.650;23.248;2023-04-26T00:48:55;91591.63;;;6.53;83.05
53041;BME280;39326;42.650;23.248;2023-04-26T00:51:21;91598.09;;;6.56;83.23
53041;BME280;39326;42.650;23.248;2023-04-26T00:53:47;91585.22;;;6.44;82.88
53041;BME280;39326;42.650;23.248;2023-04-26T00:56:15;91597.66;;;6.54;82.38
53041;BME280;39326;42.650;23.248;2023-04-26T00:58:40;91595.78;;;6.51;82.02
53041;BME280;39326;42.650;23.248;2023-04-26T01:01:06;91595.41;;;6.49;81.91
53041;BME280;39326;42.650;23.248;2023-04-26T01:03:32;91597.28;;;6.52;81.62
53041;BME280;39326;42.650;23.248;2023-04-26T01:05:57;91604.09;;;6.53;81.42
53041;BME280;39326;42.650;23.248;2023-04-26T01:08:23;91607.16;;;6.66;80.55
53041;BME280;39326;42.650;23.248;2023-04-26T01:10:49;91611.69;;;6.62;80.99
53041;BME280;39326;42.650;23.248;2023-04-26T01:13:15;91602.25;;;6.57;81.55
53041;BME280;39326;42.650;23.248;2023-04-26T01:15:47;91596.91;;;6.68;81.54
53041;BME280;39326;42.650;23.248;2023-04-26T01:18:12;91591.63;;;6.68;80.56
53041;BME280;39326;42.650;23.248;2023-04-26T01:20:39;91592.75;;;6.70;80.77
53041;BME280;39326;42.650;23.248;2023-04-26T01:23:06;91584.44;;;6.61;81.51
53041;BME280;39326;42.650;23.248;2023-04-26T01:25:32;91576.13;;;6.63;80.90
53041;BME280;39326;42.650;23.248;2023-04-26T01:27:58;91587.44;;;6.74;80.55
53041;BME280;39326;42.650;23.248;2023-04-26T01:30:24;91588.59;;;6.62;81.06
53041;BME280;39326;42.650;23.248;2023-04-26T01:32:50;91590.50;;;6.62;80.91
53041;BME280;39326;42.650;23.248;2023-04-26T01:35:15;91599.59;;;6.32;83.37
53041;BME280;39326;42.650;23.248;2023-04-26T01:37:42;91606.00;;;6.24;84.40
53041;BME280;39326;42.650;23.248;2023-04-26T01:40:08;91598.81;;;6.31;83.27
53041;BME280;39326;42.650;23.248;2023-04-26T01:42:34;91604.88;;;6.32;83.83
53041;BME280;39326;42.650;23.248;2023-04-26T01:44:59;91608.66;;;6.35;83.20
53041;BME280;39326;42.650;23.248;2023-04-26T01:47:24;91597.66;;;6.43;82.46
53041;BME280;39326;42.650;23.248;2023-04-26T01:49:51;91596.53;;;6.62;80.64
53041;BME280;39326;42.650;23.248;2023-04-26T01:52:16;91600.31;;;6.75;80.23
53041;BME280;39326;42.650;23.248;2023-04-26T01:54:42;91581.00;;;6.78;79.23
53041;BME280;39326;42.650;23.248;2023-04-26T01:57:07;91591.94;;;6.95;78.84
53041;BME280;39326;42.650;23.248;2023-04-26T01:59:33;91588.91;;;6.93;79.12
53041;BME280;39326;42.650;23.248;2023-04-26T02:01:58;91590.41;;;7.04;77.91
53041;BME280;39326;42.650;23.248;2023-04-26T02:04:25;91575.59;;;7.10;77.59
53041;BME280;39326;42.650;23.248;2023-04-26T02:06:50;91575.63;;;7.07;78.12
53041;BME280;39326;42.650;23.248;2023-04-26T02:09:16;91579.41;;;7.13;77.27
53041;BME280;39326;42.650;23.248;2023-04-26T02:11:42;91582.78;;;7.17;77.08
53041;BME280;39326;42.650;23.248;2023-04-26T02:14:07;91581.31;;;6.98;78.68
53041;BME280;39326;42.650;23.248;2023-04-26T02:16:33;91563.13;;;7.04;77.98
53041;BME280;39326;42.650;23.248;2023-04-26T02:18:58;91557.84;;;7.04;77.45
53041;BME280;39326;42.650;23.248;2023-04-26T02:21:24;91574.47;;;7.15;76.95
53041;BME280;39326;42.650;23.248;2023-04-26T02:23:49;91566.88;;;7.17;76.00
53041;BME280;39326;42.650;23.248;2023-04-26T02:26:15;91567.97;;;7.23;75.85
53041;BME280;39326;42.650;23.248;2023-04-26T02:28:40;91571.03;;;7.25;75.47
53041;BME280;39326;42.650;23.248;2023-04-26T02:31:06;91571.38;;;7.27;75.49
53041;BME280;39326;42.650;23.248;2023-04-26T02:33:32;91574.78;;;7.28;76.06
53041;BME280;39326;42.650;23.248;2023-04-26T02:35:57;91583.06;;;7.41;75.30
53041;BME280;39326;42.650;23.248;2023-04-26T02:38:23;91581.13;;;7.48;74.10
53041;BME280;39326;42.650;23.248;2023-04-26T02:41:00;91580.03;;;7.42;75.03
53041;BME280;39326;42.650;23.248;2023-04-26T02:43:25;91575.47;;;7.46;74.73
53041;BME280;39326;42.650;23.248;2023-04-26T02:45:52;91569.00;;;7.44;75.87
53041;BME280;39326;42.650;23.248;2023-04-26T02:48:18;91564.50;;;7.37;76.75
53041;BME280;39326;42.650;23.248;2023-04-26T02:50:43;91558.47;;;7.29;77.75
53041;BME280;39326;42.650;23.248;2023-04-26T02:53:09;91559.31;;;7.19;79.20
53041;BME280;39326;42.650;23.248;2023-04-26T02:55:36;91566.44;;;7.29;79.27
53041;BME280;39326;42.650;23.248;2023-04-26T02:58:01;91558.88;;;7.28;79.51
53041;BME280;39326;42.650;23.248;2023-04-26T03:00:27;91561.53;;;7.31;79.87
53041;BME280;39326;42.650;23.248;2023-04-26T03:02:52;91563.44;;;7.24;81.54
53041;BME280;39326;42.650;23.248;2023-04-26T03:05:18;91556.59;;;7.30;80.96
53041;BME280;39326;42.650;23.248;2023-04-26T03:07:45;91555.06;;;7.29;80.67
53041;BME280;39326;42.650;23.248;2023-04-26T03:10:10;91551.69;;;7.25;79.63
53041;BME280;39326;42.650;23.248;2023-04-26T03:12:37;91538.47;;;7.18;80.25
53041;BME280;39326;42.650;23.248;2023-04-26T03:15:02;91544.94;;;7.06;81.82
53041;BME280;39326;42.650;23.248;2023-04-26T03:17:28;91546.44;;;7.10;81.32
53041;BME280;39326;42.650;23.248;2023-04-26T03:19:53;91557.00;;;7.18;81.62
53041;BME280;39326;42.650;23.248;2023-04-26T03:22:19;91563.16;;;7.00;83.80
53041;BME280;39326;42.650;23.248;2023-04-26T03:24:45;91560.53;;;6.90;85.01
53041;BME280;39326;42.650;23.248;2023-04-26T03:27:12;91559.38;;;7.01;84.20
53041;BME280;39326;42.650;23.248;2023-04-26T03:29:37;91559.34;;;7.05;84.11
53041;BME280;39326;42.650;23.248;2023-04-26T03:32:03;91551.38;;;7.08;84.03
53041;BME280;39326;42.650;23.248;2023-04-26T03:34:28;91560.84;;;7.06;84.86
53041;BME280;39326;42.650;23.248;2023-04-26T03:36:54;91546.91;;;6.95;84.70
53041;BME280;39326;42.650;23.248;2023-04-26T03:39:20;91553.69;;;6.96;85.17
53041;BME280;39326;42.650;23.248;2023-04-26T03:41:46;91565.03;;;7.03;84.66
53041;BME280;39326;42.650;23.248;2023-04-26T03:44:11;91568.78;;;7.09;84.46
53041;BME280;39326;42.650;23.248;2023-04-26T03:46:37;91564.63;;;7.08;84.88
53041;BME280;39326;42.650;23.248;2023-04-26T03:49:02;91559.75;;;6.93;85.79
53041;BME280;39326;42.650;23.248;2023-04-26T03:51:28;91572.66;;;6.91;85.90
53041;BME280;39326;42.650;23.248;2023-04-26T03:53:53;91569.59;;;6.92;86.05
53041;BME280;39326;42.650;23.248;2023-04-26T03:56:19;91571.09;;;6.93;85.56
53041;BME280;39326;42.650;23.248;2023-04-26T03:58:45;91584.38;;;6.97;85.71
53041;BME280;39326;42.650;23.248;2023-04-26T04:01:10;91585.50;;;6.96;85.38
53041;BME280;39326;42.650;23.248;2023-04-26T04:03:36;91583.19;;;7.05;85.49
53041;BME280;39326;42.650;23.248;2023-04-26T04:06:01;91586.25;;;7.07;85.81
53041;BME280;39326;42.650;23.248;2023-04-26T04:08:27;91589.25;;;7.13;85.13
53041;BME280;39326;42.650;23.248;2023-04-26T04:10:52;91589.22;;;7.16;85.31
53041;BME280;39326;42.650;23.248;2023-04-26T04:13:18;91589.22;;;7.20;85.62
53041;BME280;39326;42.650;23.248;2023-04-26T04:15:43;91586.56;;;7.20;86.03
53041;BME280;39326;42.650;23.248;2023-04-26T04:18:08;91587.66;;;7.29;85.63
53041;BME280;39326;42.650;23.248;2023-04-26T04:20:34;91588.41;;;7.33;85.16
53041;BME280;39326;42.650;23.248;2023-04-26T04:22:59;91595.97;;;7.38;85.28
53041;BME280;39326;42.650;23.248;2023-04-26T04:25:28;91597.06;;;7.45;85.14
53041;BME280;39326;42.650;23.248;2023-04-26T04:27:54;91596.28;;;7.51;84.51
53041;BME280;39326;42.650;23.248;2023-04-26T04:30:19;91598.50;;;7.60;83.15
53041;BME280;39326;42.650;23.248;2023-04-26T04:32:45;91601.13;;;7.67;82.15
53041;BME280;39326;42.650;23.248;2023-04-26T04:35:11;91604.50;;;7.75;82.00
53041;BME280;39326;42.650;23.248;2023-04-26T04:37:37;91616.59;;;7.79;82.38
53041;BME280;39326;42.650;23.248;2023-04-26T04:40:03;91604.44;;;7.89;81.89
53041;BME280;39326;42.650;23.248;2023-04-26T04:42:29;91615.06;;;7.85;83.67
53041;BME280;39326;42.650;23.248;2023-04-26T04:44:54;91607.50;;;7.80;84.02
53041;BME280;39326;42.650;23.248;2023-04-26T04:47:21;91609.38;;;7.83;83.90
53041;BME280;39326;42.650;23.248;2023-04-26T04:49:46;91609.72;;;7.89;83.20
53041;BME280;39326;42.650;23.248;2023-04-26T04:52:12;91618.00;;;7.98;83.31
53041;BME280;39326;42.650;23.248;2023-04-26T04:54:37;91612.34;;;7.96;83.68
53041;BME280;39326;42.650;23.248;2023-04-26T04:57:04;91608.47;;;8.08;82.52
53041;BME280;39326;42.650;23.248;2023-04-26T04:59:29;91611.09;;;8.15;80.74
53041;BME280;39326;42.650;23.248;2023-04-26T05:01:55;91621.66;;;8.18;80.42
53041;BME280;39326;42.650;23.248;2023-04-26T05:04:21;91611.72;;;8.30;79.56
53041;BME280;39326;42.650;23.248;2023-04-26T05:06:46;91613.97;;;8.31;78.72
53041;BME280;39326;42.650;23.248;2023-04-26T05:09:11;91620.91;;;8.22;75.50
53041;BME280;39326;42.650;23.248;2023-04-26T05:11:37;91610.56;;;8.34;75.55
53041;BME280;39326;42.650;23.248;2023-04-26T05:14:02;91612.03;;;8.46;75.62
53041;BME280;39326;42.650;23.248;2023-04-26T05:16:28;91619.13;;;8.56;75.59
53041;BME280;39326;42.650;23.248;2023-04-26T05:18:53;91615.25;;;8.68;75.02
53041;BME280;39326;42.650;23.248;2023-04-26T05:21:18;91617.09;;;8.74;75.01
53041;BME280;39326;42.650;23.248;2023-04-26T05:23:44;91611.69;;;8.82;74.44
53041;BME280;39326;42.650;23.248;2023-04-26T05:26:13;91617.66;;;8.93;73.43
53041;BME280;39326;42.650;23.248;2023-04-26T05:28:39;91613.09;;;8.97;73.03
53041;BME280;39326;42.650;23.248;2023-04-26T05:31:04;91620.34;;;8.93;72.30
53041;BME280;39326;42.650;23.248;2023-04-26T05:33:30;91620.25;;;9.00;71.89
53041;BME280;39326;42.650;23.248;2023-04-26T05:35:55;91620.19;;;9.07;71.39
53041;BME280;39326;42.650;23.248;2023-04-26T05:38:22;91632.22;;;9.19;71.97
53041;BME280;39326;42.650;23.248;2023-04-26T05:40:47;91633.72;;;9.20;71.82
53041;BME280;39326;42.650;23.248;2023-04-26T05:43:13;91636.03;;;9.18;69.55
53041;BME280;39326;42.650;23.248;2023-04-26T05:45:39;91634.44;;;9.27;69.98
53041;BME280;39326;42.650;23.248;2023-04-26T05:48:05;91644.25;;;9.34;70.16
53041;BME280;39326;42.650;23.248;2023-04-26T05:50:31;91638.34;;;9.16;69.34
53041;BME280;39326;42.650;23.248;2023-04-26T05:52:56;91647.50;;;9.15;69.96
53041;BME280;39326;42.650;23.248;2023-04-26T05:55:22;91642.91;;;9.15;69.06
53041;BME280;39326;42.650;23.248;2023-04-26T05:57:48;91650.31;;;9.35;69.75
53041;BME280;39326;42.650;23.248;2023-04-26T06:00:13;91645.00;;;9.35;69.86
53041;BME280;39326;42.650;23.248;2023-04-26T06:02:41;91652.94;;;9.38;68.76
53041;BME280;39326;42.650;23.248;2023-04-26T06:05:06;91648.56;;;9.21;68.90
53041;BME280;39326;42.650;23.248;2023-04-26T06:07:32;91656.00;;;9.37;69.61
53041;BME280;39326;42.650;23.248;2023-04-26T06:09:59;91655.59;;;9.38;68.92
53041;BME280;39326;42.650;23.248;2023-04-26T06:12:25;91652.50;;;9.43;69.36
53041;BME280;39326;42.650;23.248;2023-04-26T06:14:51;91657.69;;;9.20;69.25
53041;BME280;39326;42.650;23.248;2023-04-26T06:17:16;91655.81;;;9.54;69.99
53041;BME280;39326;42.650;23.248;2023-04-26T06:19:41;91662.31;;;9.50;69.71
53041;BME280;39326;42.650;23.248;2023-04-26T06:22:07;91657.41;;;9.11;69.18
53041;BME280;39326;42.650;23.248;2023-04-26T06:24:32;91671.56;;;9.38;70.71
53041;BME280;39326;42.650;23.248;2023-04-26T06:26:58;91663.63;;;9.35;69.58
53041;BME280;39326;42.650;23.248;2023-04-26T06:29:23;91671.25;;;9.33;69.95
53041;BME280;39326;42.650;23.248;2023-04-26T06:31:48;91670.84;;;9.34;69.69
53041;BME280;39326;42.650;23.248;2023-04-26T06:34:14;91666.72;;;9.30;70.65
53041;BME280;39326;42.650;23.248;2023-04-26T06:36:39;91671.59;;;9.35;70.17
53041;BME280;39326;42.650;23.248;2023-04-26T06:39:05;91666.09;;;9.52;70.80
53041;BME280;39326;42.650;23.248;2023-04-26T06:41:30;91671.28;;;9.63;69.95
53041;BME280;39326;42.650;23.248;2023-04-26T06:43:55;91659.88;;;9.63;69.28
53041;BME280;39326;42.650;23.248;2023-04-26T06:46:21;91672.72;;;9.37;68.84
53041;BME280;39326;42.650;23.248;2023-04-26T06:48:46;91663.78;;;9.20;68.07
53041;BME280;39326;42.650;23.248;2023-04-26T06:51:12;91667.03;;;9.35;67.54
53041;BME280;39326;42.650;23.248;2023-04-26T06:53:38;91668.28;;;9.61;67.52
53041;BME280;39326;42.650;23.248;2023-04-26T06:56:03;91680.81;;;9.61;66.75
53041;BME280;39326;42.650;23.248;2023-04-26T06:58:29;91680.22;;;9.80;66.08
53041;BME280;39326;42.650;23.248;2023-04-26T07:00:54;91684.25;;;9.61;63.77
53041;BME280;39326;42.650;23.248;2023-04-26T07:03:20;91674.56;;;9.78;65.46
53041;BME280;39326;42.650;23.248;2023-04-26T07:05:45;91679.22;;;10.01;65.62
53041;BME280;39326;42.650;23.248;2023-04-26T07:08:11;91683.19;;;9.89;64.33
53041;BME280;39326;42.650;23.248;2023-04-26T07:10:38;91688.44;;;9.93;63.67
53041;BME280;39326;42.650;23.248;2023-04-26T07:13:04;91684.81;;;9.79;63.62
53041;BME280;39326;42.650;23.248;2023-04-26T07:15:29;91686.19;;;9.91;64.39
53041;BME280;39326;42.650;23.248;2023-04-26T07:17:56;91688.88;;;9.88;62.66
53041;BME280;39326;42.650;23.248;2023-04-26T07:20:21;91677.44;;;9.91;61.42
53041;BME280;39326;42.650;23.248;2023-04-26T07:22:48;91676.50;;;9.74;57.95
53041;BME280;39326;42.650;23.248;2023-04-26T07:25:14;91677.03;;;9.92;59.59
53041;BME280;39326;42.650;23.248;2023-04-26T07:27:39;91675.09;;;9.96;57.46
53041;BME280;39326;42.650;23.248;2023-04-26T07:30:05;91678.13;;;9.95;58.87
53041;BME280;39326;42.650;23.248;2023-04-26T07:32:31;91677.91;;;9.82;58.63
53041;BME280;39326;42.650;23.248;2023-04-26T07:34:56;91691.13;;;9.59;57.79
53041;BME280;39326;42.650;23.248;2023-04-26T07:37:22;91693.47;;;9.53;58.34
53041;BME280;39326;42.650;23.248;2023-04-26T07:39:47;91694.50;;;9.63;58.75
53041;BME280;39326;42.650;23.248;2023-04-26T07:42:13;91677.75;;;9.62;59.14
53041;BME280;39326;42.650;23.248;2023-04-26T07:44:39;91695.69;;;9.58;59.58
53041;BME280;39326;42.650;23.248;2023-04-26T07:47:04;91697.06;;;9.70;59.83
53041;BME280;39326;42.650;23.248;2023-04-26T07:49:35;91697.25;;;9.90;59.13
53041;BME280;39326;42.650;23.248;2023-04-26T07:52:00;91695.78;;;9.81;59.27
53041;BME280;39326;42.650;23.248;2023-04-26T07:54:26;91692.88;;;9.72;58.69
53041;BME280;39326;42.650;23.248;2023-04-26T07:56:52;91691.47;;;9.61;59.16
53041;BME280;39326;42.650;23.248;2023-04-26T07:59:17;91699.38;;;9.68;61.26
53041;BME280;39326;42.650;23.248;2023-04-26T08:01:42;91706.38;;;9.89;60.11
53041;BME280;39326;42.650;23.248;2023-04-26T08:04:08;91696.53;;;9.86;60.13
53041;BME280;39326;42.650;23.248;2023-04-26T08:06:33;91698.75;;;9.91;59.73
53041;BME280;39326;42.650;23.248;2023-04-26T08:08:59;91704.34;;;10.00;59.41
53041;BME280;39326;42.650;23.248;2023-04-26T08:11:24;91710.66;;;10.13;59.44
53041;BME280;39326;42.650;23.248;2023-04-26T08:13:50;91698.25;;;10.33;60.03
53041;BME280;39326;42.650;23.248;2023-04-26T08:16:15;91699.94;;;10.47;60.92
53041;BME280;39326;42.650;23.248;2023-04-26T08:18:41;91698.88;;;10.41;58.64
53041;BME280;39326;42.650;23.248;2023-04-26T08:21:06;91703.78;;;10.46;58.90
53041;BME280;39326;42.650;23.248;2023-04-26T08:23:33;91701.59;;;10.38;58.09
53041;BME280;39326;42.650;23.248;2023-04-26T08:26:00;91707.00;;;10.00;57.41
53041;BME280;39326;42.650;23.248;2023-04-26T08:28:25;91713.88;;;9.97;59.17
53041;BME280;39326;42.650;23.248;2023-04-26T08:30:50;91706.56;;;10.08;59.26
53041;BME280;39326;42.650;23.248;2023-04-26T08:33:17;91714.03;;;10.17;59.13
53041;BME280;39326;42.650;23.248;2023-04-26T08:35:42;91716.22;;;10.26;58.17
53041;BME280;39326;42.650;23.248;2023-04-26T08:38:07;91712.22;;;10.41;57.08
53041;BME280;39326;42.650;23.248;2023-04-26T08:40:33;91707.41;;;10.02;57.83
53041;BME280;39326;42.650;23.248;2023-04-26T08:43:00;91710.72;;;10.10;58.23
53041;BME280;39326;42.650;23.248;2023-04-26T08:45:26;91712.56;;;10.13;56.25
53041;BME280;39326;42.650;23.248;2023-04-26T08:47:52;91708.09;;;10.06;56.50
53041;BME280;39326;42.650;23.248;2023-04-26T08:50:22;91712.13;;;10.18;57.77
53041;BME280;39326;42.650;23.248;2023-04-26T08:52:49;91705.16;;;10.27;57.58
53041;BME280;39326;42.650;23.248;2023-04-26T08:55:16;91706.16;;;10.10;57.04
53041;BME280;39326;42.650;23.248;2023-04-26T08:57:46;91709.78;;;10.23;56.76
53041;BME280;39326;42.650;23.248;2023-04-26T09:00:12;91701.91;;;10.13;56.52
53041;BME280;39326;42.650;23.248;2023-04-26T09:02:40;91719.78;;;10.16;56.54
53041;BME280;39326;42.650;23.248;2023-04-26T09:05:09;91707.69;;;10.07;56.76
53041;BME280;39326;42.650;23.248;2023-04-26T09:07:42;91707.03;;;10.30;56.98
53041;BME280;39326;42.650;23.248;2023-04-26T09:10:09;91709.56;;;10.41;57.16
53041;BME280;39326;42.650;23.248;2023-04-26T09:12:35;91721.69;;;10.46;56.63
53041;BME280;39326;42.650;23.248;2023-04-26T09:15:01;91721.63;;;10.49;55.58
53041;BME280;39326;42.650;23.248;2023-04-26T09:19:55;91716.38;;;10.42;56.00
53041;BME280;39326;42.650;23.248;2023-04-26T09:24:53;91717.81;;;11.01;55.56
53041;BME280;39326;42.650;23.248;2023-04-26T09:27:19;91717.69;;;11.08;54.90
53041;BME280;39326;42.650;23.248;2023-04-26T09:35:30;91724.50;;;11.59;52.57
53041;BME280;39326;42.650;23.248;2023-04-26T09:38:04;91730.19;;;11.61;52.79
53041;BME280;39326;42.650;23.248;2023-04-26T09:43:20;91726.34;;;11.62;53.29
53041;BME280;39326;42.650;23.248;2023-04-26T09:45:53;91713.75;;;11.83;53.66
53041;BME280;39326;42.650;23.248;2023-04-26T09:50:55;91711.84;;;11.83;52.10
53041;BME280;39326;42.650;23.248;2023-04-26T09:53:40;91718.22;;;12.09;51.95
53041;BME280;39326;42.650;23.248;2023-04-26T09:56:11;91703.50;;;11.81;49.95
53041;BME280;39326;42.650;23.248;2023-04-26T09:58:58;91707.00;;;11.78;51.66
53041;BME280;39326;42.650;23.248;2023-04-26T10:01:25;91708.22;;;12.13;52.31
53041;BME280;39326;42.650;23.248;2023-04-26T10:03:57;91701.03;;;12.46;51.44
53041;BME280;39326;42.650;23.248;2023-04-26T10:06:26;91702.34;;;12.74;51.43
53041;BME280;39326;42.650;23.248;2023-04-26T10:08:53;91703.28;;;12.84;50.70
53041;BME280;39326;42.650;23.248;2023-04-26T10:11:20;91707.63;;;12.78;49.73
53041;BME280;39326;42.650;23.248;2023-04-26T10:13:45;91689.50;;;12.49;49.24
53041;BME280;39326;42.650;23.248;2023-04-26T10:16:15;91707.56;;;12.26;48.47
53041;BME280;39326;42.650;23.248;2023-04-26T10:18:40;91706.97;;;12.18;48.41
53041;BME280;39326;42.650;23.248;2023-04-26T10:21:11;91704.00;;;12.32;49.39
53041;BME280;39326;42.650;23.248;2023-04-26T10:23:39;91701.91;;;12.23;48.56
53041;BME280;39326;42.650;23.248;2023-04-26T10:26:05;91696.19;;;12.21;47.76
53041;BME280;39326;42.650;23.248;2023-04-26T10:31:09;91702.53;;;12.47;48.70
53041;BME280;39326;42.650;23.248;2023-04-26T10:33:34;91712.78;;;12.13;48.04
53041;BME280;39326;42.650;23.248;2023-04-26T10:36:07;91709.94;;;12.04;47.04
53041;BME280;39326;42.650;23.248;2023-04-26T10:38:34;91704.59;;;12.04;47.75
53041;BME280;39326;42.650;23.248;2023-04-26T10:41:29;91703.88;;;12.19;47.67
53041;BME280;39326;42.650;23.248;2023-04-26T10:43:55;91699.13;;;12.27;47.28
53041;BME280;39326;42.650;23.248;2023-04-26T10:46:41;91698.13;;;12.21;45.84
53041;BME280;39326;42.650;23.248;2023-04-26T10:49:15;91702.94;;;12.10;47.39
53041;BME280;39326;42.650;23.248;2023-04-26T10:52:07;91699.56;;;12.26;48.02
53041;BME280;39326;42.650;23.248;2023-04-26T10:54:46;91692.28;;;12.26;46.40
53041;BME280;39326;42.650;23.248;2023-04-26T10:57:11;91698.16;;;12.37;47.95
53041;BME280;39326;42.650;23.248;2023-04-26T10:59:38;91700.25;;;12.46;45.83
53041;BME280;39326;42.650;23.248;2023-04-26T11:02:04;91702.59;;;12.08;44.70
53041;BME280;39326;42.650;23.248;2023-04-26T11:04:51;91697.31;;;12.24;45.67
53041;BME280;39326;42.650;23.248;2023-04-26T11:07:35;91696.94;;;12.42;45.18
53041;BME280;39326;42.650;23.248;2023-04-26T11:10:01;91707.72;;;12.18;45.64
53041;BME280;39326;42.650;23.248;2023-04-26T11:12:26;91686.97;;;11.86;45.91
53041;BME280;39326;42.650;23.248;2023-04-26T11:14:52;91697.72;;;11.83;46.75
53041;BME280;39326;42.650;23.248;2023-04-26T11:17:17;91695.13;;;11.36;46.51
53041;BME280;39326;42.650;23.248;2023-04-26T11:19:45;91685.53;;;11.62;47.67
53041;BME280;39326;42.650;23.248;2023-04-26T11:22:11;91691.50;;;11.69;48.84
53041;BME280;39326;42.650;23.248;2023-04-26T11:24:36;91697.44;;;11.77;47.14
53041;BME280;39326;42.650;23.248;2023-04-26T11:27:10;91687.72;;;11.67;46.26
53041;BME280;39326;42.650;23.248;2023-04-26T11:29:36;91698.28;;;11.74;46.47
53041;BME280;39326;42.650;23.248;2023-04-26T11:32:02;91695.19;;;11.76;46.50
53041;BME280;39326;42.650;23.248;2023-04-26T11:34:35;91696.97;;;12.02;46.61
53041;BME280;39326;42.650;23.248;2023-04-26T11:37:02;91699.97;;;12.24;46.58
53041;BME280;39326;42.650;23.248;2023-04-26T11:39:32;91697.59;;;12.46;45.01
53041;BME280;39326;42.650;23.248;2023-04-26T11:42:05;91699.22;;;12.23;44.43
53041;BME280;39326;42.650;23.248;2023-04-26T11:44:31;91705.13;;;11.95;45.44
53041;BME280;39326;42.650;23.248;2023-04-26T11:46:59;91702.41;;;11.99;46.10
53041;BME280;39326;42.650;23.248;2023-04-26T11:49:26;91702.31;;;12.02;46.71
53041;BME280;39326;42.650;23.248;2023-04-26T11:51:52;91701.44;;;11.89;46.80
53041;BME280;39326;42.650;23.248;2023-04-26T11:56:53;91709.75;;;11.51;45.97
53041;BME280;39326;42.650;23.248;2023-04-26T11:59:23;91699.16;;;11.67;47.49
53041;BME280;39326;42.650;23.248;2023-04-26T12:01:49;91703.16;;;11.79;46.51
53041;BME280;39326;42.650;23.248;2023-04-26T12:04:16;91694.16;;;11.89;46.37
53041;BME280;39326;42.650;23.248;2023-04-26T12:06:44;91700.38;;;12.03;46.93
53041;BME280;39326;42.650;23.248;2023-04-26T12:09:10;91708.28;;;11.90;46.02
53041;BME280;39326;42.650;23.248;2023-04-26T12:11:36;91696.09;;;11.89;45.22
53041;BME280;39326;42.650;23.248;2023-04-26T12:14:01;91691.28;;;12.00;45.39
53041;BME280;39326;42.650;23.248;2023-04-26T12:16:27;91688.22;;;11.82;46.37
53041;BME280;39326;42.650;23.248;2023-04-26T12:18:54;91684.88;;;11.78;45.81
53041;BME280;39326;42.650;23.248;2023-04-26T12:21:20;91683.00;;;11.55;45.41
53041;BME280;39326;42.650;23.248;2023-04-26T12:23:46;91686.38;;;11.59;45.57
53041;BME280;39326;42.650;23.248;2023-04-26T12:26:13;91685.34;;;11.73;45.65
53041;BME280;39326;42.650;23.248;2023-04-26T12:28:39;91685.00;;;12.10;46.13
53041;BME280;39326;42.650;23.248;2023-04-26T12:31:05;91686.19;;;12.26;45.44
53041;BME280;39326;42.650;23.248;2023-04-26T12:33:31;91678.22;;;12.58;44.37
53041;BME280;39326;42.650;23.248;2023-04-26T12:36:10;91680.38;;;12.67;43.71
53041;BME280;39326;42.650;23.248;2023-04-26T12:38:36;91688.75;;;12.65;44.52
53041;BME280;39326;42.650;23.248;2023-04-26T12:41:02;91682.28;;;12.83;44.50
53041;BME280;39326;42.650;23.248;2023-04-26T12:43:27;91679.19;;;12.68;43.99
53041;BME280;39326;42.650;23.248;2023-04-26T12:45:53;91682.97;;;12.50;44.29
53041;BME280;39326;42.650;23.248;2023-04-26T12:48:18;91682.56;;;12.72;44.78
53041;BME280;39326;42.650;23.248;2023-04-26T12:50:43;91676.78;;;12.73;45.73
53041;BME280;39326;42.650;23.248;2023-04-26T12:53:10;91676.41;;;12.55;45.53
53041;BME280;39326;42.650;23.248;2023-04-26T12:55:35;91684.56;;;12.48;44.40
53041;BME280;39326;42.650;23.248;2023-04-26T12:58:01;91683.72;;;12.35;44.78
53041;BME280;39326;42.650;23.248;2023-04-26T13:00:26;91680.69;;;11.96;45.09
53041;BME280;39326;42.650;23.248;2023-04-26T13:02:52;91687.38;;;12.05;46.01
53041;BME280;39326;42.650;23.248;2023-04-26T13:05:17;91681.63;;;12.42;45.79
53041;BME280;39326;42.650;23.248;2023-04-26T13:07:43;91685.78;;;12.27;46.02
53041;BME280;39326;42.650;23.248;2023-04-26T13:10:09;91697.84;;;12.35;45.99
53041;BME280;39326;42.650;23.248;2023-04-26T13:12:36;91690.38;;;12.27;45.07
53041;BME280;39326;42.650;23.248;2023-04-26T13:15:03;91696.22;;;12.02;46.05